Time;durP1;ratioP1;P1;durP2;ratioP2;P2;SDS_P1;SDS_P2;PMS_P1;PMS_P2;Temp;Humidity;BMP_temperature;BMP_pressure;BME280_temperature;BME280_humidity;BME280_pressure;Samples;Min_cycle;Max_cycle;Signal;HPM_P1;HPM_P2
2022/08/11 00:01:05;;;;;;;3.42;1.58;;;20.60;99.90;;;;;;12329668;28;20055;-34
2022/08/11 00:07:08;;;;;;;4.18;1.60;;;20.50;99.90;;;;;;12317448;28;20138;-34
2022/08/11 00:13:10;;;;;;;6.07;1.80;;;20.30;99.90;;;;;;12326486;28;20059;-34
2022/08/11 00:19:23;;;;;;;7.32;1.70;;;20.10;99.90;;;;;;12333262;28;20104;-38
2022/08/11 00:25:47;;;;;;;4.03;1.60;;;20.10;99.90;;;;;;12334847;28;20046;-34
2022/08/11 00:31:53;;;;;;;3.78;1.60;;;20.00;99.90;;;;;;12343226;28;20130;-33
2022/08/11 00:37:57;;;;;;;5.57;1.58;;;19.90;99.90;;;;;;12325961;28;20051;-33
2022/08/11 00:44:42;;;;;;;3.60;1.60;;;19.80;99.90;;;;;;12323141;28;20178;-38
2022/08/11 00:51:37;;;;;;;3.13;1.52;;;19.80;99.90;;;;;;12322029;28;20162;-37
2022/08/11 00:58:14;;;;;;;4.20;1.85;;;19.70;99.90;;;;;;12168513;28;20051;-34
2022/08/11 01:04:26;;;;;;;3.40;1.67;;;19.60;99.90;;;;;;12340663;28;20109;-34
2022/08/11 01:10:46;;;;;;;2.53;1.48;;;19.50;99.90;;;;;;12343310;28;20054;-34
2022/08/11 01:17:08;;;;;;;3.58;1.33;;;19.40;99.90;;;;;;12339506;28;20141;-37
2022/08/11 01:23:38;;;;;;;4.15;1.40;;;19.30;99.90;;;;;;12335833;28;20145;-34
2022/08/11 01:30:02;;;;;;;3.30;1.70;;;19.30;99.90;;;;;;12343635;28;20093;-37
2022/08/11 01:36:16;;;;;;;4.82;1.55;;;19.40;99.90;;;;;;12336971;28;20573;-34
2022/08/11 01:49:20;;;;;;;2.58;1.60;;;19.30;99.90;;;;;;12339378;28;20058;-34
2022/08/11 01:55:46;;;;;;;3.17;1.70;;;19.10;99.90;;;;;;12337120;28;20046;-34
2022/08/11 02:02:17;;;;;;;4.57;1.75;;;19.10;99.90;;;;;;12332145;28;20116;-37
2022/08/11 02:08:40;;;;;;;;;;;19.00;99.90;;;;;;12341154;28;20058;-38
2022/08/11 02:15:18;;;;;;;4.57;1.63;;;19.00;99.90;;;;;;12344444;28;19945;-34
2022/08/11 02:28:04;;;;;;;4.47;1.70;;;18.90;99.90;;;;;;12343212;28;20042;-33
2022/08/11 02:34:39;;;;;;;2.25;1.30;;;18.80;99.90;;;;;;12337331;28;20177;-33
2022/08/11 02:54:44;;;;;;;2.97;1.45;;;18.70;99.90;;;;;;12332614;28;20471;-33
2022/08/11 03:00:56;;;;;;;2.58;1.30;;;18.60;99.90;;;;;;12338184;28;20055;-33
2022/08/11 03:07:14;;;;;;;3.42;1.70;;;18.40;99.90;;;;;;12341744;28;20055;-37
2022/08/11 03:20:22;;;;;;;6.90;1.70;;;18.40;99.90;;;;;;12339152;28;20530;-37
2022/08/11 03:26:37;;;;;;;5.50;1.50;;;18.40;99.90;;;;;;12334469;28;20134;-33
2022/08/11 03:39:49;;;;;;;8.50;1.67;;;18.40;99.90;;;;;;12326427;28;20063;-37
2022/08/11 03:46:08;;;;;;;6.57;1.65;;;18.40;99.90;;;;;;12328503;28;20097;-33
2022/08/11 03:52:32;;;;;;;5.55;1.50;;;18.30;99.90;;;;;;12334412;28;20054;-33
2022/08/11 03:59:15;;;;;;;4.53;1.88;;;18.20;99.90;;;;;;12331055;28;20141;-38
2022/08/11 04:05:37;;;;;;;4.20;1.67;;;18.10;99.90;;;;;;12330560;28;20268;-33
2022/08/11 04:12:03;;;;;;;4.18;1.60;;;18.00;99.90;;;;;;12336208;28;20306;-33
2022/08/11 04:18:41;;;;;;;6.47;1.98;;;17.90;99.90;;;;;;12339797;28;20198;-33
2022/08/11 04:24:52;;;;;;;4.32;1.48;;;18.00;99.90;;;;;;12325955;28;20051;-33
2022/08/11 04:31:16;;;;;;;3.92;1.30;;;18.00;99.90;;;;;;12333033;28;20057;-33
2022/08/11 04:38:15;;;;;;;3.67;1.35;;;18.00;99.90;;;;;;12334712;28;20077;-37
2022/08/11 04:44:26;;;;;;;4.07;1.40;;;17.90;99.90;;;;;;12302652;28;20513;-37
2022/08/11 05:11:11;;;;;;;4.93;1.50;;;17.60;99.90;;;;;;12331624;28;20454;-33
2022/08/11 05:36:44;;;;;;;6.63;2.22;;;17.80;99.90;;;;;;12243499;29;20051;-33
2022/08/11 06:02:07;;;;;;;3.25;2.10;;;18.00;99.90;;;;;;12243181;28;20055;-37
2022/08/11 06:08:11;;;;;;;8.48;2.88;;;18.00;99.90;;;;;;12241544;29;20058;-37
2022/08/11 06:14:14;;;;;;;5.65;2.05;;;18.00;99.90;;;;;;12289823;28;20141;-33
2022/08/11 06:20:19;;;;;;;5.72;2.42;;;18.20;99.90;;;;;;12342595;28;20126;-37
2022/08/11 06:26:21;;;;;;;5.95;2.08;;;18.30;99.90;;;;;;12330884;28;20085;-33
2022/08/11 06:32:34;;;;;;;4.18;2.05;;;18.40;99.90;;;;;;12340848;28;20061;-37
2022/08/11 06:38:52;;;;;;;3.45;1.80;;;18.40;99.90;;;;;;12342678;28;20173;-33
2022/08/11 06:45:15;;;;;;;5.63;1.98;;;18.50;99.90;;;;;;12341295;28;20054;-37
2022/08/11 06:51:17;;;;;;;6.90;1.65;;;18.60;99.90;;;;;;12338072;28;20138;-37
2022/08/11 07:03:45;;;;;;;8.05;2.30;;;19.00;99.90;;;;;;12329624;28;20043;-38
2022/08/11 07:16:22;;;;;;;3.42;1.98;;;19.30;99.90;;;;;;12335363;28;20561;-33
2022/08/11 07:28:54;;;;;;;4.65;1.50;;;19.70;99.90;;;;;;12333878;28;20455;-34
2022/08/11 07:35:09;;;;;;;6.78;1.73;;;20.00;99.90;;;;;;12332796;28;20097;-37
2022/08/11 07:41:20;;;;;;;2.85;1.38;;;20.10;99.90;;;;;;12332955;28;20163;-37
2022/08/11 07:53:44;;;;;;;3.80;1.52;;;20.60;99.90;;;;;;12331563;28;20102;-34
2022/08/11 08:19:17;;;;;;;3.15;1.30;;;21.60;99.90;;;;;;12332199;28;20138;-37
2022/08/11 08:25:19;;;;;;;7.68;1.23;;;22.20;99.90;;;;;;12324132;28;20055;-34
2022/08/11 08:31:21;;;;;;;3.85;1.20;;;22.30;99.90;;;;;;12326146;28;20555;-37
2022/08/11 08:37:28;;;;;;;6.22;1.27;;;22.50;99.90;;;;;;12323312;28;20113;-37
2022/08/11 08:43:52;;;;;;;2.50;1.15;;;23.00;99.90;;;;;;12327931;28;20054;-37
2022/08/11 08:50:00;;;;;;;2.70;1.35;;;23.40;99.90;;;;;;12337352;28;20066;-38
2022/08/11 08:56:04;;;;;;;4.05;1.27;;;23.80;99.90;;;;;;12333066;28;20063;-34
2022/08/11 09:02:11;;;;;;;3.08;1.42;;;23.90;99.90;;;;;;12334252;28;20422;-39
2022/08/11 09:08:17;;;;;;;5.63;1.50;;;23.80;99.90;;;;;;12344788;28;20170;-38
2022/08/11 09:14:24;;;;;;;3.85;1.40;;;24.30;99.90;;;;;;12346159;28;20043;-35
2022/08/11 09:20:28;;;;;;;3.42;1.25;;;24.40;99.90;;;;;;12340427;28;20193;-38
2022/08/11 09:33:10;;;;;;;3.00;1.48;;;24.80;99.90;;;;;;12314065;28;20059;-34
2022/08/11 09:45:33;;;;;;;2.85;1.20;;;25.50;99.90;;;;;;12330370;28;20455;-34
2022/08/11 09:51:41;;;;;;;3.00;1.35;;;25.60;99.90;;;;;;12341164;28;20058;-38
2022/08/11 09:58:18;;;;;;;3.08;1.30;;;25.90;99.90;;;;;;12330322;28;20499;-34
2022/08/11 10:04:45;;;;;;;5.80;1.50;;;26.00;99.90;;;;;;12332603;28;20046;-34
2022/08/11 10:10:48;;;;;;;4.20;1.92;;;26.00;99.90;;;;;;12333617;28;20701;-34
2022/08/11 10:16:51;;;;;;;4.95;1.33;;;26.20;99.90;;;;;;12329923;28;20174;-34
2022/08/11 10:35:46;;;;;;;6.20;1.40;;;26.60;99.90;;;;;;12329306;28;20051;-34
2022/08/11 10:48:16;;;;;;;5.13;1.40;;;27.60;99.90;;;;;;12337468;28;20058;-37
2022/08/11 11:00:40;;;;;;;2.53;1.38;;;27.70;99.90;;;;;;12337303;28;20098;-34
2022/08/11 11:07:00;;;;;;;6.20;1.30;;;27.80;99.90;;;;;;12335286;28;20054;-40
2022/08/11 11:19:25;;;;;;;3.25;1.35;;;27.80;99.90;;;;;;12335269;28;20449;-37
2022/08/11 11:26:05;;;;;;;4.60;1.23;;;27.80;99.90;;;;;;12327577;28;20051;-38
2022/08/11 11:32:25;;;;;;;3.45;1.40;;;28.20;99.90;;;;;;12322206;28;20051;-34
2022/08/11 11:38:28;;;;;;;3.92;1.30;;;28.20;99.90;;;;;;12321005;28;20101;-35
2022/08/11 11:44:31;;;;;;;5.50;1.42;;;28.20;99.90;;;;;;12329295;28;20086;-34
2022/08/11 11:50:36;;;;;;;4.38;1.42;;;28.10;99.90;;;;;;12330105;28;20543;-34
2022/08/11 11:56:38;;;;;;;6.55;1.30;;;28.30;99.90;;;;;;12325972;28;20051;-40
2022/08/11 12:02:41;;;;;;;4.85;1.55;;;28.80;99.90;;;;;;12329345;28;20422;-34
2022/08/11 12:08:46;;;;;;;4.57;1.52;;;28.70;99.90;;;;;;12329138;28;20058;-40
2022/08/11 12:14:48;;;;;;;4.80;1.17;;;28.90;99.90;;;;;;12331598;28;20097;-38
2022/08/11 12:20:50;;;;;;;2.65;1.40;;;29.00;99.90;;;;;;12336169;28;20055;-35
2022/08/11 12:33:18;;;;;;;3.10;1.50;;;29.20;99.90;;;;;;12330533;28;20462;-34
2022/08/11 12:46:18;;;;;;;4.13;1.33;;;29.60;99.90;;;;;;12354153;28;20058;-34
2022/08/11 12:52:26;;;;;;;6.30;1.50;;;29.50;99.90;;;;;;12357039;28;20062;-34
2022/08/11 12:58:28;;;;;;;7.03;1.40;;;29.50;99.90;;;;;;12338912;28;20047;-40
2022/08/11 13:17:20;;;;;;;3.50;1.48;;;29.80;99.90;;;;;;12340161;28;20054;-34
2022/08/11 13:23:42;;;;;;;5.47;1.70;;;29.60;99.90;;;;;;12341836;28;20050;-34
2022/08/11 13:36:27;;;;;;;5.05;1.15;;;29.60;99.90;;;;;;12339990;28;20059;-35
2022/08/11 13:42:29;;;;;;;2.47;1.33;;;29.90;99.90;;;;;;12341039;28;20522;-34
2022/08/11 13:48:31;;;;;;;;;;;30.10;99.90;;;;;;12333895;28;20043;-38
2022/08/11 13:54:37;;;;;;;2.90;1.13;;;29.60;99.60;;;;;;12332880;28;20287;-35
2022/08/11 14:00:43;;;;;;;3.35;1.40;;;29.70;99.00;;;;;;12331183;28;20063;-40
2022/08/11 14:06:58;;;;;;;4.28;1.52;;;29.70;96.80;;;;;;12335968;28;20051;-39
2022/08/11 14:19:52;;;;;;;4.93;1.35;;;29.70;98.40;;;;;;12328954;28;20059;-36
2022/08/11 14:32:16;;;;;;;3.03;1.20;;;29.80;97.50;;;;;;12336597;28;20165;-35
2022/08/11 14:38:18;;;;;;;3.72;1.23;;;29.60;98.70;;;;;;12332028;28;20148;-35
2022/08/11 14:50:41;;;;;;;6.43;1.52;;;29.50;95.40;;;;;;12331566;28;20062;-36
2022/08/11 14:56:43;;;;;;;;;;;29.70;94.40;;;;;;12327266;28;20141;-39
2022/08/11 15:09:07;;;;;;;6.88;1.70;;;29.80;97.70;;;;;;12326158;28;20310;-39
2022/08/11 15:47:04;;;;;;;4.55;1.40;;;29.60;96.50;;;;;;12331838;28;20050;-39
2022/08/11 15:53:52;;;;;;;3.45;1.38;;;29.20;95.40;;;;;;12328319;28;20622;-39
2022/08/11 16:06:26;;;;;;;3.20;1.27;;;29.20;96.70;;;;;;12336833;28;20612;-38
2022/08/11 16:12:31;;;;;;;2.10;1.23;;;29.20;95.70;;;;;;12329669;28;20043;-35
2022/08/11 16:18:41;;;;;;;3.97;1.40;;;29.10;97.30;;;;;;12326141;28;20077;-34
2022/08/11 16:24:45;;;;;;;4.75;1.40;;;29.30;96.40;;;;;;12329318;28;20078;-40
2022/08/11 16:31:09;;;;;;;3.15;1.23;;;29.00;95.80;;;;;;12331515;28;20047;-39
2022/08/11 16:50:12;;;;;;;3.33;1.25;;;29.10;97.80;;;;;;12319655;28;20406;-34
2022/08/11 16:56:19;;;;;;;4.13;1.30;;;29.20;96.80;;;;;;12310327;28;20210;-39
2022/08/11 17:28:20;;;;;;;3.03;1.20;;;28.70;96.60;;;;;;12280994;28;20047;-34
2022/08/11 18:00:26;;;;;;;3.88;1.35;;;28.10;98.50;;;;;;12337207;28;20142;-39
2022/08/11 18:06:30;;;;;;;5.32;1.45;;;28.10;99.90;;;;;;12335409;28;20154;-38
